Time;durP1;ratioP1;P1;durP2;ratioP2;P2;SDS_P1;SDS_P2;PMS_P1;PMS_P2;Temp;Humidity;BMP_temperature;BMP_pressure;BME280_temperature;BME280_humidity;BME280_pressure;Samples;Min_cycle;Max_cycle;Signal;HPM_P1;HPM_P2
2021/12/28 00:03:36;;;;;;;1.70;1.60;;;;;;;15.28;46.07;99063.72;19674855;30;20056;-76
2021/12/28 00:13:39;;;;;;;2.33;1.70;;;;;;;15.33;45.72;99074.78;19673853;30;20064;-76
2021/12/28 00:23:45;;;;;;;2.80;1.58;;;;;;;15.31;46.03;99066.06;19671898;30;20060;-76
2021/12/28 00:33:47;;;;;;;2.15;1.95;;;;;;;15.94;46.15;99163.13;19672714;30;20121;-77
2021/12/28 00:43:48;;;;;;;2.17;1.83;;;;;;;15.64;46.28;99125.97;19670930;30;20400;-76
2021/12/28 00:53:50;;;;;;;2.10;1.88;;;;;;;15.34;46.55;99073.78;19699298;30;20450;-77
2021/12/28 01:03:52;;;;;;;2.05;1.85;;;;;;;15.25;45.96;99058.69;19670686;30;20121;-76
2021/12/28 01:13:56;;;;;;;2.38;1.88;;;;;;;15.93;46.14;99178.38;19668462;30;20546;-77
2021/12/28 01:23:58;;;;;;;2.08;1.92;;;;;;;15.36;46.57;99061.06;19669283;30;20063;-76
2021/12/28 01:34:00;;;;;;;2.40;2.17;;;;;;;15.95;46.76;99162.13;19668193;30;20060;-76
2021/12/28 01:44:07;;;;;;;2.45;2.25;;;;;;;15.86;46.40;99144.28;19667867;30;20272;-76
2021/12/28 01:54:09;;;;;;;2.90;2.60;;;;;;;15.19;46.65;99022.63;19666607;30;20068;-76
2021/12/28 02:04:15;;;;;;;3.40;3.03;;;;;;;15.59;46.92;99081.88;19666072;30;20071;-76
2021/12/28 02:14:17;;;;;;;3.45;2.78;;;;;;;15.94;46.48;99131.75;19665668;30;20467;-75
2021/12/28 02:24:19;;;;;;;2.90;2.60;;;;;;;15.26;46.59;99017.47;19665066;30;20487;-75
2021/12/28 02:34:25;;;;;;;2.85;2.35;;;;;;;15.94;46.62;99131.75;19662831;30;20086;-76
2021/12/28 02:44:28;;;;;;;3.50;2.90;;;;;;;14.81;46.70;98940.00;19663421;30;20083;-76
2021/12/28 02:54:30;;;;;;;3.45;2.83;;;;;;;15.42;46.76;99028.22;19662989;30;20134;-77
2021/12/28 03:04:31;;;;;;;3.80;3.30;;;;;;;15.95;46.82;99108.44;19660548;30;20070;-76
2021/12/28 03:14:33;;;;;;;4.03;2.95;;;;;;;15.71;47.05;99053.72;19662149;30;20060;-75
2021/12/28 03:24:35;;;;;;;4.93;3.70;;;;;;;15.31;47.04;98982.97;19661631;30;20060;-75
2021/12/28 03:34:37;;;;;;;4.55;3.03;;;;;;;15.95;47.10;99068.19;19661095;30;20059;-76
2021/12/28 03:44:39;;;;;;;5.28;3.25;;;;;;;15.97;47.37;99063.50;19688810;30;20060;-76
2021/12/28 03:54:40;;;;;;;3.55;3.22;;;;;;;15.18;47.30;98927.16;19658984;30;20117;-76
2021/12/28 04:04:42;;;;;;;3.80;3.40;;;;;;;15.98;47.29;99057.13;19673715;30;20069;-75
2021/12/28 04:14:44;;;;;;;2.83;2.47;;;;;;;16.01;47.11;99039.81;19659886;30;20503;-75
2021/12/28 04:24:46;;;;;;;4.13;3.03;;;;;;;15.44;47.10;98956.47;19673036;30;20056;-76
2021/12/28 04:34:56;;;;;;;3.15;2.85;;;;;;;15.99;47.46;99029.28;19673650;30;20056;-75
2021/12/28 04:45:10;;;;;;;3.90;2.97;;;;;;;15.97;47.64;99025.06;19671790;30;20115;-75
2021/12/28 04:55:16;;;;;;;3.63;2.70;;;;;;;15.97;47.47;99014.31;19670946;30;20120;-76
2021/12/28 05:05:17;;;;;;;;;;;;;;;16.02;47.73;99007.47;19669769;30;20060;-76
2021/12/28 05:15:19;;;;;;;3.38;2.90;;;;;;;15.66;47.50;98957.63;19669728;30;20080;-76
2021/12/28 05:25:21;;;;;;;3.42;2.92;;;;;;;15.30;47.94;98892.81;19667778;30;20477;-76
2021/12/28 05:35:23;;;;;;;3.08;2.72;;;;;;;15.57;47.66;98931.00;19667949;30;20110;-75
2021/12/28 05:45:26;;;;;;;3.42;3.00;;;;;;;15.80;48.03;98976.75;19695751;30;20137;-75
2021/12/28 05:55:28;;;;;;;3.53;3.05;;;;;;;15.15;48.02;98872.06;19666944;30;20056;-74
2021/12/28 06:05:30;;;;;;;4.57;2.95;;;;;;;15.59;48.34;98942.41;19666487;30;20060;-74
2021/12/28 06:15:32;;;;;;;3.85;2.70;;;;;;;15.52;48.89;98928.81;19665408;30;20074;-74
2021/12/28 06:25:34;;;;;;;3.22;2.50;;;;;;;15.92;48.39;98939.72;19665137;30;20068;-76
2021/12/28 06:35:36;;;;;;;3.75;2.30;;;;;;;16.17;48.63;98955.75;19678122;30;20531;-76
2021/12/28 06:45:38;;;;;;;3.20;2.50;;;;;;;16.25;48.32;98942.28;19661713;30;20180;-75
2021/12/28 06:55:40;;;;;;;5.80;2.50;;;;;;;16.28;48.62;98935.75;19661536;30;20098;-76
2021/12/28 07:05:42;;;;;;;4.53;2.42;;;;;;;16.34;48.92;98933.19;19662523;30;20113;-78
2021/12/28 07:15:45;;;;;;;2.70;2.33;;;;;;;15.59;48.76;98789.53;19662267;30;20064;-78
2021/12/28 07:25:47;;;;;;;3.58;2.10;;;;;;;16.41;49.01;98911.03;19690318;30;20151;-74
2021/12/28 07:35:49;;;;;;;3.25;2.10;;;;;;;15.73;49.29;98791.47;19660223;30;20051;-74
2021/12/28 07:45:51;;;;;;;2.20;1.83;;;;;;;16.47;49.29;98883.47;19660915;30;20061;-74
2021/12/28 07:55:54;;;;;;;3.42;2.03;;;;;;;15.93;49.62;98785.75;19670805;30;20196;-75
2021/12/28 08:05:55;;;;;;;3.38;2.13;;;;;;;16.49;50.05;98895.69;19674534;30;20477;-81
2021/12/28 08:15:57;;;;;;;16.27;2.90;;;;;;;16.64;51.34;98881.50;19702128;30;20063;-77
2021/12/28 08:25:59;;;;;;;5.22;2.25;;;;;;;16.66;52.50;98884.84;19672932;30;20095;-71
2021/12/28 08:36:01;;;;;;;4.40;2.15;;;;;;;16.15;52.52;98781.44;19672335;30;20120;-71
2021/12/28 08:46:03;;;;;;;6.45;2.22;;;;;;;15.92;52.24;98750.00;19670749;30;20117;-71
2021/12/28 08:56:05;;;;;;;6.38;1.80;;;;;;;16.43;52.22;98833.78;19669683;30;20067;-73
2021/12/28 09:06:07;;;;;;;11.85;3.58;;;;;;;16.41;52.17;98801.72;19668289;30;20052;-74
2021/12/28 09:16:09;;;;;;;3.83;1.90;;;;;;;16.43;51.89;98807.75;19668645;30;20127;-73
2021/12/28 09:26:11;;;;;;;4.53;1.42;;;;;;;16.43;51.55;98799.69;19669237;30;20060;-74
2021/12/28 09:36:15;;;;;;;5.35;1.73;;;;;;;16.57;51.39;98806.16;19667114;30;20663;-74
2021/12/28 09:46:17;;;;;;;5.38;1.60;;;;;;;16.60;51.22;98792.38;19667505;30;20056;-74
2021/12/28 09:56:19;;;;;;;4.07;1.50;;;;;;;16.48;51.34;98764.25;19667070;30;20064;-74
2021/12/28 10:06:25;;;;;;;3.55;1.35;;;;;;;16.65;51.09;98773.84;19665060;30;20060;-74
2021/12/28 10:16:48;;;;;;;3.50;1.40;;;;;;;16.59;51.07;98776.44;19665301;30;20048;-74
2021/12/28 10:27:15;;;;;;;3.85;1.40;;;;;;;16.64;50.93;98736.44;19693649;30;20056;-73
2021/12/28 10:37:19;;;;;;;3.20;1.58;;;;;;;16.64;50.92;98714.94;19664189;30;20071;-74
2021/12/28 10:47:25;;;;;;;5.28;1.50;;;;;;;16.37;50.50;98645.53;19663823;30;20149;-74
2021/12/28 10:57:40;;;;;;;2.60;1.10;;;;;;;16.47;50.54;98665.91;19661751;30;20063;-74
2021/12/28 11:07:56;;;;;;;4.80;1.37;;;;;;;16.00;50.78;98558.59;19661334;30;20090;-74
2021/12/28 11:17:57;;;;;;;2.83;1.33;;;;;;;16.65;50.72;98639.53;19662141;30;20389;-74
2021/12/28 11:28:18;;;;;;;4.70;1.40;;;;;;;16.74;50.40;98634.06;19672750;30;20063;-73
2021/12/28 11:38:20;;;;;;;5.22;1.48;;;;;;;16.49;50.48;98577.94;19685712;30;20071;-74
2021/12/28 11:48:21;;;;;;;3.05;1.30;;;;;;;16.28;50.71;98522.25;19685444;30;20060;-74
2021/12/28 11:59:02;;;;;;;4.78;2.00;;;;;;;16.77;50.44;98571.91;19685153;30;20056;-74
2021/12/28 12:09:06;;;;;;;3.92;1.38;;;;;;;16.63;50.53;98539.47;19684750;30;20056;-73
2021/12/28 12:19:08;;;;;;;2.42;1.20;;;;;;;16.70;50.44;98542.28;19684596;30;20060;-73
2021/12/28 12:29:29;;;;;;;2.28;1.15;;;;;;;16.16;50.82;98430.59;19683334;30;20064;-74
2021/12/28 12:39:38;;;;;;;2.42;1.10;;;;;;;16.36;50.47;98423.66;19678608;30;20056;-74
2021/12/28 12:49:40;;;;;;;1.63;1.10;;;;;;;16.20;50.48;98386.25;19670378;30;20056;-74
2021/12/28 12:59:42;;;;;;;1.90;1.35;;;;;;;16.78;50.61;98463.41;19670027;30;20196;-74
2021/12/28 13:10:26;;;;;;;2.15;1.10;;;;;;;16.20;50.81;98356.72;19670465;30;20060;-74
2021/12/28 13:20:33;;;;;;;3.38;0.95;;;;;;;16.73;50.80;98444.34;19696535;30;20071;-73
2021/12/28 13:30:37;;;;;;;1.63;0.98;;;;;;;16.76;50.81;98430.50;19668943;30;20068;-74
2021/12/28 13:40:50;;;;;;;1.92;0.80;;;;;;;16.74;50.64;98419.13;19667248;30;20064;-74
2021/12/28 13:50:59;;;;;;;1.52;0.90;;;;;;;16.20;50.69;98327.19;19694387;30;20052;-74
2021/12/28 14:01:15;;;;;;;1.73;1.13;;;;;;;16.18;50.87;98329.25;19666822;30;20083;-73
2021/12/28 14:11:44;;;;;;;1.77;1.10;;;;;;;16.66;50.67;98402.09;19666146;30;20064;-74
2021/12/28 14:21:46;;;;;;;1.50;0.90;;;;;;;16.79;50.66;98430.13;19665434;30;20066;-73
2021/12/28 14:32:00;;;;;;;0.95;0.80;;;;;;;16.78;50.86;98444.59;19665089;30;20056;-74
2021/12/28 14:42:15;;;;;;;1.00;0.90;;;;;;;16.83;50.81;98490.56;19664083;30;20060;-74
2021/12/28 14:52:45;;;;;;;1.23;0.90;;;;;;;16.84;50.69;98497.59;19663963;30;20064;-74
2021/12/28 15:02:49;;;;;;;1.10;0.70;;;;;;;16.84;50.86;98497.59;19684101;30;20068;-74
2021/12/28 15:12:51;;;;;;;0.70;0.70;;;;;;;16.67;50.61;98495.09;19663576;30;20063;-74
2021/12/28 15:22:53;;;;;;;2.13;0.80;;;;;;;16.11;50.62;98392.75;19662286;30;20184;-74
2021/12/28 15:32:55;;;;;;;2.60;0.70;;;;;;;16.70;50.46;98487.69;19647137;30;20064;-74
2021/12/28 15:42:58;;;;;;;1.20;0.70;;;;;;;16.23;50.46;98435.06;19661126;30;20492;-73
2021/12/28 15:53:00;;;;;;;2.35;0.85;;;;;;;16.53;50.94;98498.66;19659678;30;20059;-75
2021/12/28 16:03:01;;;;;;;1.15;0.70;;;;;;;16.61;51.13;98528.09;19660666;30;20060;-78
2021/12/28 16:13:04;;;;;;;1.27;0.70;;;;;;;16.88;51.14;98581.34;19663953;30;20142;-78
2021/12/28 16:23:06;;;;;;;1.52;0.70;;;;;;;16.77;50.97;98566.53;19672815;30;20125;-77
2021/12/28 16:33:08;;;;;;;0.52;0.52;;;;;;;16.83;51.32;98592.69;19673419;30;20079;-77
2021/12/28 16:43:10;;;;;;;1.33;0.80;;;;;;;16.79;51.17;98592.19;19670920;30;20507;-77
2021/12/28 16:53:12;;;;;;;1.73;0.75;;;;;;;16.93;51.13;98638.91;19671500;30;20083;-77
2021/12/28 17:03:14;;;;;;;2.70;0.90;;;;;;;16.70;51.10;98619.34;19670819;30;20118;-78
2021/12/28 17:13:18;;;;;;;1.90;0.90;;;;;;;16.61;51.03;98607.88;19670365;30;20088;-77
2021/12/28 17:23:19;;;;;;;2.65;1.10;;;;;;;16.89;50.92;98674.41;19696988;30;20470;-77
2021/12/28 17:33:22;;;;;;;2.08;0.80;;;;;;;16.34;50.87;98596.69;19669008;30;20431;-78
2021/12/28 17:43:25;;;;;;;2.20;1.30;;;;;;;16.92;50.83;98706.28;19666724;30;20060;-78
2021/12/28 17:53:29;;;;;;;2.60;1.08;;;;;;;16.92;50.96;98723.25;19663722;30;20121;-78
2021/12/28 18:03:32;;;;;;;4.50;1.23;;;;;;;16.64;50.66;98688.91;19667413;30;20060;-78
2021/12/28 18:13:33;;;;;;;1.90;0.98;;;;;;;16.86;50.84;98742.78;19666259;30;20067;-78
2021/12/28 18:23:40;;;;;;;2.55;0.95;;;;;;;16.86;50.72;98766.97;19665271;30;20064;-78
2021/12/28 18:33:43;;;;;;;2.78;0.90;;;;;;;16.24;50.88;98670.28;19664971;30;20056;-77
2021/12/28 18:43:46;;;;;;;2.47;1.38;;;;;;;16.67;50.70;98771.81;19663753;30;20060;-78
2021/12/28 18:53:47;;;;;;;1.40;0.90;;;;;;;16.85;50.75;98819.06;19633063;30;20060;-78
2021/12/28 19:03:49;;;;;;;3.15;1.23;;;;;;;16.93;50.65;98859.31;19662883;30;20269;-78
2021/12/28 19:13:52;;;;;;;3.42;1.30;;;;;;;16.35;50.63;98746.91;19675754;30;20071;-78
2021/12/28 19:23:54;;;;;;;3.53;1.33;;;;;;;16.34;50.18;98769.38;19675915;30;20064;-78
2021/12/28 19:33:56;;;;;;;3.63;1.38;;;;;;;15.07;50.48;98622.84;19660588;30;20056;-79
2021/12/28 19:43:59;;;;;;;2.03;1.00;;;;;;;16.81;50.57;98877.69;19661184;30;20056;-76
2021/12/28 19:54:05;;;;;;;3.92;1.38;;;;;;;16.45;50.64;98859.44;19673091;30;20122;-77
2021/12/28 20:04:10;;;;;;;3.42;1.40;;;;;;;16.56;50.72;98925.38;19674170;30;20048;-77
2021/12/28 20:14:12;;;;;;;3.90;1.42;;;;;;;16.56;50.71;98954.91;19673312;30;20064;-77
2021/12/28 20:24:16;;;;;;;2.25;1.17;;;;;;;16.48;50.88;98963.84;19672403;30;20066;-76
2021/12/28 20:34:18;;;;;;;2.65;1.20;;;;;;;16.08;51.23;98936.13;19671846;30;20064;-76
2021/12/28 20:44:25;;;;;;;2.80;1.40;;;;;;;16.21;51.38;99016.13;19671044;30;20150;-76
2021/12/28 20:54:27;;;;;;;2.92;1.30;;;;;;;16.04;51.12;99008.13;19666170;30;20068;-76
2021/12/28 21:04:32;;;;;;;3.83;1.45;;;;;;;16.14;51.33;99058.94;19669574;30;20060;-77
2021/12/28 21:14:34;;;;;;;3.47;1.30;;;;;;;15.46;51.31;98962.50;19669020;30;20096;-77
2021/12/28 21:24:52;;;;;;;3.95;1.40;;;;;;;15.25;51.70;98940.75;19669561;30;20069;-81
2021/12/28 21:34:55;;;;;;;4.95;1.77;;;;;;;15.89;51.56;99083.09;19665838;30;20148;-76
2021/12/28 21:44:57;;;;;;;4.25;1.58;;;;;;;15.81;52.13;99105.38;19706148;30;20579;-77
2021/12/28 21:55:04;;;;;;;3.73;1.60;;;;;;;15.18;51.84;99020.97;19768895;29;20102;-75
2021/12/28 22:05:07;;;;;;;3.33;1.65;;;;;;;15.58;52.02;99096.31;19724064;30;20066;-75
2021/12/28 22:15:09;;;;;;;2.97;1.52;;;;;;;15.36;52.22;99109.31;19739005;30;20064;-74
2021/12/28 22:25:12;;;;;;;5.53;1.85;;;;;;;15.52;52.30;99162.16;19738757;30;20055;-75
2021/12/28 22:35:18;;;;;;;5.25;1.90;;;;;;;15.46;52.91;99203.03;19738178;30;20067;-74
2021/12/28 22:45:21;;;;;;;3.60;1.55;;;;;;;14.77;52.63;99099.38;19737705;30;20067;-75
2021/12/28 22:55:23;;;;;;;4.68;1.67;;;;;;;15.27;52.87;99213.03;19721036;30;20091;-75
2021/12/28 23:05:25;;;;;;;2.97;1.55;;;;;;;14.84;53.10;99175.44;19720277;30;20063;-75
2021/12/28 23:15:28;;;;;;;3.53;1.88;;;;;;;14.62;53.05;99156.19;19734739;30;20063;-75
2021/12/28 23:25:30;;;;;;;3.60;2.28;;;;;;;15.14;53.00;99301.91;19733479;30;20304;-74
2021/12/28 23:35:34;;;;;;;4.00;2.10;;;;;;;14.58;53.50;99242.34;19735269;30;20059;-75
2021/12/28 23:45:36;;;;;;;3.08;1.88;;;;;;;15.00;53.45;99334.63;19733553;30;20059;-75
2021/12/28 23:55:58;;;;;;;1.80;1.30;;;;;;;14.81;53.91;99320.44;19733265;30;20187;-75
